Time;durP1;ratioP1;P1;durP2;ratioP2;P2;SDS_P1;SDS_P2;PMS_P1;PMS_P2;Temp;Humidity;BMP_temperature;BMP_pressure;BME280_temperature;BME280_humidity;BME280_pressure;Samples;Min_cycle;Max_cycle;Signal;HPM_P1;HPM_P2
2021/08/14 00:01:37;;;;;;;;;6.00;4.00;;;;;21.48;52.85;101952.19;5061612;28;45251;-60
2021/08/14 00:04:03;;;;;;;;;5.75;5.25;;;;;21.49;52.56;101949.47;5062010;28;45411;-61
2021/08/14 00:06:28;;;;;;;;;6.50;6.25;;;;;21.48;53.09;101947.78;5061018;28;47300;-60
2021/08/14 00:08:53;;;;;;;;;7.00;6.25;;;;;21.41;53.17;101930.50;5061861;28;45386;-60
2021/08/14 00:11:19;;;;;;;;;6.00;5.00;;;;;21.47;53.31;101942.56;5061801;28;45438;-61
2021/08/14 00:13:44;;;;;;;;;4.50;4.50;;;;;21.46;53.06;101944.34;5061541;28;45364;-61
2021/08/14 00:16:09;;;;;;;;;7.75;6.50;;;;;21.49;53.88;101945.97;5061180;28;46131;-60
2021/08/14 00:18:35;;;;;;;;;8.75;4.50;;;;;21.50;53.73;101937.09;5061462;28;45402;-61
2021/08/14 00:21:00;;;;;;;;;7.00;5.00;;;;;21.47;53.29;101938.13;5060592;28;45497;-62
2021/08/14 00:23:25;;;;;;;;;8.00;5.00;;;;;21.45;54.08;101939.16;5060803;28;45545;-62
2021/08/14 00:25:51;;;;;;;;;7.25;6.00;;;;;21.43;53.42;101941.03;5059856;28;46299;-63
2021/08/14 00:28:17;;;;;;;;;6.25;4.75;;;;;21.41;53.66;101932.28;5060092;28;45326;-63
2021/08/14 00:30:42;;;;;;;;;9.00;6.00;;;;;21.36;53.33;101929.03;5060269;28;45465;-63
2021/08/14 00:33:07;;;;;;;;;7.25;5.00;;;;;21.32;54.05;101922.22;5060245;28;45242;-63
2021/08/14 00:35:33;;;;;;;;;7.50;6.25;;;;;21.31;53.76;101931.94;5058777;28;46099;-63
2021/08/14 00:37:58;;;;;;;;;7.00;4.00;;;;;21.27;54.15;101924.25;5069515;28;47589;-63
2021/08/14 00:40:23;;;;;;;;;4.50;4.00;;;;;21.23;53.97;101929.69;5060092;28;45486;-63
2021/08/14 00:42:49;;;;;;;;;7.00;6.50;;;;;21.16;53.09;101927.44;5061546;28;45559;-61
2021/08/14 00:45:14;;;;;;;;;9.00;5.00;;;;;21.11;53.84;101924.19;5061150;28;46034;-63
2021/08/14 00:47:41;;;;;;;;;6.25;3.25;;;;;21.06;53.69;101923.56;5061707;28;45267;-63
2021/08/14 00:50:07;;;;;;;;;8.25;4.00;;;;;20.98;54.39;101923.09;5060229;28;45301;-62
2021/08/14 00:52:32;;;;;;;;;6.75;5.00;;;;;20.95;53.23;101929.41;5061316;28;46622;-62
2021/08/14 00:54:58;;;;;;;;;8.75;5.00;;;;;20.91;54.25;101933.16;5061281;28;46416;-62
2021/08/14 00:57:23;;;;;;;;;3.25;3.25;;;;;20.89;54.57;101925.31;5061224;28;45399;-62
2021/08/14 00:59:49;;;;;;;;;4.75;4.00;;;;;20.87;53.87;101936.91;5061550;28;45242;-62
2021/08/14 01:02:17;;;;;;;;;7.00;5.00;;;;;20.88;53.96;101928.03;5060250;28;45354;-62
2021/08/14 01:04:43;;;;;;;;;12.75;4.25;;;;;20.91;54.97;101931.38;5060149;28;45381;-62
2021/08/14 01:07:09;;;;;;;;;4.00;4.00;;;;;20.83;55.56;101936.19;5061496;28;45531;-62
2021/08/14 01:09:34;;;;;;;;;8.00;5.50;;;;;20.80;55.31;101933.69;5061565;28;45228;-62
2021/08/14 01:12:02;;;;;;;;;6.00;4.25;;;;;20.79;54.76;101937.25;5059844;28;45487;-62
2021/08/14 01:14:29;;;;;;;;;4.00;3.00;;;;;20.83;54.67;101928.28;5060635;28;45476;-63
2021/08/14 01:16:54;;;;;;;;;6.00;4.75;;;;;20.84;55.47;101927.34;5060994;28;45418;-64
2021/08/14 01:19:20;;;;;;;;;7.50;5.75;;;;;20.83;55.72;101914.22;5060904;28;45360;-63
2021/08/14 01:21:54;;;;;;;;;8.50;5.50;;;;;20.81;56.14;101924.81;5060077;28;45357;-63
2021/08/14 01:24:21;;;;;;;;;3.25;3.25;;;;;20.79;56.20;101920.56;5060283;28;45481;-63
2021/08/14 01:26:48;;;;;;;;;7.75;5.50;;;;;20.78;56.50;101926.78;5060554;28;45586;-63
2021/08/14 01:29:13;;;;;;;;;10.25;7.50;;;;;20.72;56.37;101916.53;5060698;28;45400;-63
2021/08/14 01:31:39;;;;;;;;;5.25;4.00;;;;;20.63;57.25;101913.44;5059926;28;45376;-63
2021/08/14 01:34:05;;;;;;;;;5.75;5.00;;;;;20.57;56.63;101907.59;5060511;28;46304;-63
2021/08/14 01:36:30;;;;;;;;;9.75;4.50;;;;;20.54;56.52;101918.31;5059110;28;45495;-63
2021/08/14 01:39:00;;;;;;;;;5.50;5.50;;;;;20.53;56.44;101919.25;5060027;28;45415;-63
2021/08/14 01:41:26;;;;;;;;;8.00;6.00;;;;;20.52;56.73;101918.41;5060507;28;45429;-62
2021/08/14 01:44:03;;;;;;;;;3.00;3.00;;;;;20.49;56.98;101910.63;5058391;28;46164;-63
2021/08/14 01:46:34;;;;;;;;;7.75;5.50;;;;;20.47;56.82;101909.88;5058845;28;45329;-63
2021/08/14 01:49:00;;;;;;;;;9.25;6.00;;;;;20.47;57.25;101911.66;5059216;28;45368;-63
2021/08/14 01:51:25;;;;;;;;;7.25;4.75;;;;;20.45;57.50;101909.09;5059677;28;45322;-63
2021/08/14 01:53:53;;;;;;;;;7.25;5.00;;;;;20.47;57.45;101904.56;5058681;28;45878;-63
2021/08/14 01:56:21;;;;;;;;;7.75;5.00;;;;;20.48;56.90;101905.44;5060173;28;45557;-64
2021/08/14 01:58:47;;;;;;;;;6.25;4.75;;;;;20.46;56.99;101905.50;5059930;28;45440;-64
2021/08/14 02:01:13;;;;;;;;;6.75;5.00;;;;;20.46;56.52;101905.50;5059601;28;45292;-63
2021/08/14 02:03:38;;;;;;;;;5.00;5.00;;;;;20.46;56.00;101902.03;5059453;28;45513;-63
2021/08/14 02:06:06;;;;;;;;;6.75;5.75;;;;;20.42;56.24;101903.06;5059878;28;45401;-63
2021/08/14 02:08:32;;;;;;;;;7.00;6.00;;;;;20.35;56.78;101902.50;5057981;28;45492;-63
2021/08/14 02:10:57;;;;;;;;;3.75;3.75;;;;;20.29;56.50;101894.91;5058650;28;45581;-63
2021/08/14 02:13:23;;;;;;;;;6.50;4.75;;;;;20.28;55.93;101898.47;5059798;28;45875;-63
2021/08/14 02:15:48;;;;;;;;;5.75;4.25;;;;;20.24;56.85;101895.13;5058750;28;46338;-64
2021/08/14 02:18:13;;;;;;;;;6.50;5.00;;;;;20.19;56.73;101894.47;5059891;28;45615;-63
2021/08/14 02:20:39;;;;;;;;;9.25;6.25;;;;;20.17;55.68;101882.28;5059333;28;45548;-63
2021/08/14 02:23:04;;;;;;;;;6.00;4.50;;;;;20.17;56.19;101891.06;5059467;28;46655;-63
2021/08/14 02:25:29;;;;;;;;;5.50;4.50;;;;;20.15;56.20;101881.53;5059554;28;45410;-63
2021/08/14 02:27:55;;;;;;;;;7.00;5.75;;;;;20.14;56.47;101887.72;5059723;28;45612;-63
2021/08/14 02:30:20;;;;;;;;;6.00;6.00;;;;;20.12;56.20;101881.69;5059212;28;45339;-63
2021/08/14 02:32:47;;;;;;;;;9.50;5.25;;;;;20.12;56.84;101873.75;5059263;28;46006;-63
2021/08/14 02:35:13;;;;;;;;;10.75;5.50;;;;;20.08;57.12;101883.63;5067763;28;45828;-63
2021/08/14 02:37:38;;;;;;;;;6.75;4.75;;;;;20.09;57.01;101880.03;5059780;28;45565;-63
2021/08/14 02:40:04;;;;;;;;;3.75;3.75;;;;;20.09;57.12;101887.09;5056568;28;45433;-63
2021/08/14 02:42:31;;;;;;;;;4.25;4.25;;;;;20.05;57.53;101881.13;5059253;28;45434;-63
2021/08/14 02:44:57;;;;;;;;;6.00;4.25;;;;;20.04;57.80;101882.06;5058904;28;45224;-61
2021/08/14 02:47:22;;;;;;;;;6.00;5.00;;;;;20.04;56.94;101876.78;5059223;28;45783;-61
2021/08/14 02:49:47;;;;;;;;;4.25;4.25;;;;;20.04;57.08;101884.69;5059492;28;45295;-61
2021/08/14 02:52:13;;;;;;;;;10.75;4.75;;;;;20.04;57.56;101882.06;5059075;28;46047;-62
2021/08/14 02:54:38;;;;;;;;;5.75;4.50;;;;;20.00;58.07;101875.19;5059280;28;45395;-61
2021/08/14 02:57:04;;;;;;;;;7.75;5.25;;;;;19.95;57.18;101867.53;5058469;28;45469;-61
2021/08/14 02:59:29;;;;;;;;;6.00;4.75;;;;;19.96;57.68;101866.59;5059463;28;45545;-61
2021/08/14 03:01:54;;;;;;;;;6.50;6.25;;;;;19.94;57.87;101868.44;5059078;28;46238;-63
2021/08/14 03:04:19;;;;;;;;;5.00;5.00;;;;;19.91;57.45;101863.31;5059250;28;45213;-63
2021/08/14 03:06:45;;;;;;;;;8.00;5.25;;;;;19.91;57.95;101865.97;5059684;28;45273;-63
2021/08/14 03:09:10;;;;;;;;;6.25;3.25;;;;;19.92;57.97;101858.91;5059972;28;45288;-61
2021/08/14 03:11:37;;;;;;;;;6.25;5.25;;;;;19.93;57.74;101855.34;5058750;28;45981;-61
2021/08/14 03:14:02;;;;;;;;;8.50;5.50;;;;;19.92;58.15;101856.25;5063074;28;45566;-61
2021/08/14 03:16:28;;;;;;;;;10.00;5.00;;;;;19.93;58.13;101852.69;5062871;28;45516;-61
2021/08/14 03:18:53;;;;;;;;;8.50;6.75;;;;;19.92;57.92;101851.84;5058286;28;45481;-61
2021/08/14 03:21:18;;;;;;;;;7.50;6.50;;;;;19.89;57.94;101848.50;5056097;28;46246;-61
2021/08/14 03:23:44;;;;;;;;;7.00;5.00;;;;;19.89;58.22;101848.50;5053187;28;45350;-62
2021/08/14 03:26:09;;;;;;;;;11.00;6.50;;;;;19.86;58.48;101854.78;5053232;28;45418;-62
2021/08/14 03:28:35;;;;;;;;;8.25;5.25;;;;;19.82;57.82;101850.56;5050741;28;45475;-61
2021/08/14 03:31:00;;;;;;;;;9.00;5.25;;;;;19.82;58.16;101857.63;5055891;28;45346;-61
2021/08/14 03:33:25;;;;;;;;;8.00;5.25;;;;;19.79;57.83;101848.06;5053320;28;45395;-61
2021/08/14 03:35:51;;;;;;;;;7.00;7.00;;;;;19.80;57.94;101847.16;5054216;28;45291;-60
2021/08/14 03:38:16;;;;;;;;;7.25;5.00;;;;;19.80;58.53;101846.28;5053365;28;45373;-61
2021/08/14 03:40:41;;;;;;;;;7.75;5.00;;;;;19.79;58.20;101844.59;5055834;28;45455;-61
2021/08/14 03:43:06;;;;;;;;;8.25;6.75;;;;;19.78;57.93;101842.88;5054397;28;45342;-60
2021/08/14 03:45:32;;;;;;;;;9.50;5.25;;;;;19.77;58.63;101844.66;5056707;28;45554;-60
2021/08/14 03:47:57;;;;;;;;;9.50;7.75;;;;;19.77;58.16;101849.09;5055817;28;45488;-63
2021/08/14 03:50:22;;;;;;;;;9.00;7.00;;;;;19.75;58.58;101847.38;5054346;28;45598;-61
2021/08/14 03:52:48;;;;;;;;;9.25;7.00;;;;;19.72;58.93;101846.69;5051606;28;46351;-60
2021/08/14 03:55:13;;;;;;;;;5.75;5.25;;;;;19.71;58.21;101852.88;5059255;28;45226;-60
2021/08/14 03:57:38;;;;;;;;;6.50;5.50;;;;;19.66;58.67;101847.84;5051586;28;45461;-60
2021/08/14 04:00:05;;;;;;;;;6.50;5.00;;;;;19.66;58.98;101842.56;5054584;28;46180;-60
2021/08/14 04:02:30;;;;;;;;;6.25;5.50;;;;;19.63;58.18;101845.34;5053999;28;45620;-60
2021/08/14 04:04:56;;;;;;;;;8.75;6.50;;;;;19.59;59.40;101838.47;5052006;28;45226;-60
2021/08/14 04:07:21;;;;;;;;;6.25;5.75;;;;;19.57;59.18;101831.56;5050844;28;45169;-61
2021/08/14 04:09:47;;;;;;;;;9.50;6.50;;;;;19.52;59.40;101831.78;5054051;28;46370;-61
2021/08/14 04:12:12;;;;;;;;;8.50;6.75;;;;;19.51;59.50;101826.56;5055157;28;45269;-61
2021/08/14 04:14:38;;;;;;;;;10.50;7.50;;;;;19.50;59.78;101828.34;5052341;28;45218;-61
2021/08/14 04:17:04;;;;;;;;;10.50;8.75;;;;;19.50;59.59;101832.78;5052162;28;45430;-62
2021/08/14 04:19:29;;;;;;;;;8.50;8.00;;;;;19.49;59.43;101828.44;5052315;28;45379;-61
2021/08/14 04:21:55;;;;;;;;;11.25;8.75;;;;;19.50;59.26;101831.00;5051217;28;45374;-61
2021/08/14 04:24:20;;;;;;;;;8.50;8.00;;;;;19.48;59.71;101827.56;5052318;28;45272;-61
2021/08/14 04:26:46;;;;;;;;;10.75;8.25;;;;;19.47;59.61;101825.88;5051876;28;46331;-61
2021/08/14 04:29:12;;;;;;;;;9.75;7.75;;;;;19.45;59.58;101823.31;5051936;28;45520;-61
2021/08/14 04:31:37;;;;;;;;;16.75;10.25;;;;;19.48;59.38;101830.22;5050737;28;45529;-61
2021/08/14 04:34:03;;;;;;;;;14.00;10.00;;;;;19.44;59.64;101818.09;5052774;28;45388;-61
2021/08/14 04:36:28;;;;;;;;;12.50;9.75;;;;;19.45;59.63;101817.19;5053047;28;45506;-60
2021/08/14 04:38:53;;;;;;;;;13.25;11.75;;;;;19.47;59.63;101819.75;5058067;28;46068;-60
2021/08/14 04:41:19;;;;;;;;;16.50;10.75;;;;;19.45;59.99;101822.44;5061912;28;45233;-60
2021/08/14 04:43:44;;;;;;;;;13.75;12.75;;;;;19.44;60.09;101821.59;5061494;28;45464;-60
2021/08/14 04:46:09;;;;;;;;;18.75;11.75;;;;;19.46;59.78;101816.25;5060975;28;45214;-63
2021/08/14 04:48:35;;;;;;;;;17.00;11.25;;;;;19.45;60.08;101814.53;5061349;28;45173;-62
2021/08/14 04:51:00;;;;;;;;;11.25;11.00;;;;;19.46;60.09;101816.25;5060369;28;45941;-62
2021/08/14 04:53:26;;;;;;;;;12.00;10.75;;;;;19.47;60.12;101810.06;5060277;28;45279;-62
2021/08/14 04:55:51;;;;;;;;;17.00;12.00;;;;;19.43;60.28;101811.97;5061739;28;45386;-60
2021/08/14 04:58:16;;;;;;;;;15.50;11.50;;;;;19.45;60.02;101812.75;5061485;28;45421;-60
2021/08/14 05:00:42;;;;;;;;;12.00;10.25;;;;;19.44;60.12;101805.78;5061737;28;45254;-60
2021/08/14 05:03:07;;;;;;;;;8.25;6.75;;;;;19.48;60.00;101814.41;5061432;28;45200;-60
2021/08/14 05:05:32;;;;;;;;;11.00;10.00;;;;;19.44;61.43;101807.56;5061562;28;45512;-60
2021/08/14 05:07:58;;;;;;;;;18.00;11.75;;;;;19.44;60.63;101808.41;5061263;28;45215;-61
2021/08/14 05:10:23;;;;;;;;;14.25;9.25;;;;;19.43;60.65;101819.88;5061484;28;45379;-61
2021/08/14 05:12:48;;;;;;;;;9.75;9.75;;;;;19.42;60.00;101807.63;5061973;28;45736;-61
2021/08/14 05:15:14;;;;;;;;;10.50;8.25;;;;;19.43;60.86;101809.34;5061443;28;45525;-61
2021/08/14 05:17:39;;;;;;;;;12.50;10.75;;;;;19.43;60.17;101819.03;5060855;28;46182;-61
2021/08/14 05:20:06;;;;;;;;;8.00;8.00;;;;;19.43;60.66;101824.31;5061166;28;45400;-61
2021/08/14 05:22:31;;;;;;;;;9.50;7.50;;;;;19.41;61.12;101819.06;5061343;28;45311;-63
2021/08/14 05:24:57;;;;;;;;;9.75;8.25;;;;;19.43;60.52;101816.41;5061212;28;45507;-63
2021/08/14 05:27:22;;;;;;;;;12.25;9.00;;;;;19.44;61.09;101821.59;5060898;28;46695;-63
2021/08/14 05:29:48;;;;;;;;;12.25;8.00;;;;;19.43;61.74;101833.06;5061354;28;45389;-61
2021/08/14 05:32:13;;;;;;;;;8.25;8.25;;;;;19.41;61.15;101826.13;5060860;28;45420;-62
2021/08/14 05:34:38;;;;;;;;;11.00;8.00;;;;;19.44;61.22;101826.03;5060529;28;45302;-62
2021/08/14 05:37:04;;;;;;;;;13.75;8.00;;;;;19.46;61.09;101824.16;5059997;28;45191;-63
2021/08/14 05:39:30;;;;;;;;;11.50;8.75;;;;;19.50;61.03;101831.00;5061109;28;45426;-62
2021/08/14 05:41:55;;;;;;;;;9.75;6.25;;;;;19.51;60.90;101830.06;5060968;28;45483;-62
2021/08/14 05:44:21;;;;;;;;;8.00;6.75;;;;;19.50;61.55;101838.03;5060764;28;45598;-63
2021/08/14 05:46:46;;;;;;;;;12.25;8.25;;;;;19.48;61.78;101838.13;5060722;28;45476;-63
2021/08/14 05:49:12;;;;;;;;;13.75;10.50;;;;;19.51;60.95;101837.97;5060697;28;45381;-62
2021/08/14 05:51:37;;;;;;;;;4.00;2.50;;;;;19.54;60.52;101832.59;5060929;28;45252;-62
2021/08/14 05:54:03;;;;;;;;;11.00;10.25;;;;;19.58;60.67;101842.06;5060901;28;45370;-60
2021/08/14 05:56:29;;;;;;;;;8.75;6.00;;;;;19.63;60.90;101840.06;5060489;28;46222;-60
2021/08/14 05:58:54;;;;;;;;;12.25;8.25;;;;;19.66;60.23;101839.91;5060793;28;45298;-60
2021/08/14 06:01:19;;;;;;;;;11.00;8.75;;;;;19.73;60.01;101848.38;5059194;28;45339;-60
2021/08/14 06:03:45;;;;;;;;;8.75;8.75;;;;;19.72;60.59;101839.63;5060691;28;45298;-59
2021/08/14 06:06:10;;;;;;;;;6.50;5.00;;;;;19.78;60.46;101841.09;5060375;28;46938;-60
2021/08/14 06:08:36;;;;;;;;;7.25;6.50;;;;;19.85;60.41;101844.31;5060500;28;45468;-60
2021/08/14 06:11:01;;;;;;;;;7.75;7.25;;;;;19.88;60.39;101842.38;5060600;28;45302;-60
2021/08/14 06:13:27;;;;;;;;;8.75;6.25;;;;;19.94;60.59;101849.97;5060393;28;45595;-61
2021/08/14 06:15:52;;;;;;;;;8.75;6.75;;;;;20.01;59.90;101851.38;5060038;28;45439;-61
2021/08/14 06:18:17;;;;;;;;;10.00;6.50;;;;;20.07;59.83;101847.59;5060280;28;45267;-61
2021/08/14 06:20:43;;;;;;;;;10.75;8.25;;;;;20.11;59.40;101846.50;5060216;28;45465;-61
2021/08/14 06:23:08;;;;;;;;;5.50;5.50;;;;;20.12;60.05;101848.22;5060297;28;45492;-61
2021/08/14 06:25:33;;;;;;;;;8.50;7.75;;;;;20.16;59.47;101848.91;5060141;28;45447;-61
2021/08/14 06:27:59;;;;;;;;;10.25;5.50;;;;;20.23;59.37;101851.19;5060296;28;45191;-61
2021/08/14 06:30:24;;;;;;;;;7.00;5.75;;;;;20.30;59.07;101846.44;5060383;28;45279;-63
2021/08/14 06:32:49;;;;;;;;;9.00;6.50;;;;;20.35;59.36;101849.69;5060027;28;45176;-62
2021/08/14 06:35:15;;;;;;;;;11.00;5.50;;;;;20.41;58.93;101849.41;5059513;28;45428;-62
2021/08/14 06:37:44;;;;;;;;;7.50;6.00;;;;;20.49;58.63;101852.53;5060089;28;45219;-60
2021/08/14 06:40:11;;;;;;;;;11.75;5.50;;;;;20.59;58.15;101853.75;5059805;28;45354;-60
2021/08/14 06:42:37;;;;;;;;;12.25;7.00;;;;;20.71;58.06;101854.91;5059912;28;45611;-60
2021/08/14 06:45:03;;;;;;;;;8.75;7.00;;;;;20.82;57.88;101846.41;5059594;28;45540;-60
2021/08/14 06:47:29;;;;;;;;;6.75;5.75;;;;;20.88;57.15;101854.03;5059031;28;45346;-61
2021/08/14 06:49:54;;;;;;;;;8.25;7.25;;;;;20.89;56.88;101843.38;5059696;28;45959;-60
2021/08/14 06:52:19;;;;;;;;;9.25;6.75;;;;;20.90;56.90;101842.44;5059413;28;45393;-60
2021/08/14 06:54:45;;;;;;;;;10.25;8.75;;;;;20.98;56.58;101849.97;5059567;28;45476;-60
2021/08/14 06:57:10;;;;;;;;;10.75;9.00;;;;;21.01;56.08;101854.22;5059575;28;45440;-60
2021/08/14 06:59:35;;;;;;;;;12.00;8.75;;;;;21.05;56.00;101850.50;5059861;28;45544;-60
2021/08/14 07:02:01;;;;;;;;;10.00;7.75;;;;;21.13;55.90;101851.78;5059392;28;48134;-60
2021/08/14 07:04:26;;;;;;;;;10.50;7.75;;;;;21.17;55.69;101849.81;5059117;28;47237;-60
2021/08/14 07:06:51;;;;;;;;;10.00;10.00;;;;;21.20;55.46;101855.78;5059063;28;45350;-60
2021/08/14 07:09:18;;;;;;;;;9.50;8.75;;;;;21.28;55.81;101846.66;5059630;28;45211;-61
2021/08/14 07:11:45;;;;;;;;;9.75;9.00;;;;;21.36;54.99;101847.91;5059426;28;45395;-61
2021/08/14 07:14:11;;;;;;;;;11.00;8.75;;;;;21.47;54.46;101844.69;5058267;28;46060;-61
2021/08/14 07:16:36;;;;;;;;;8.00;7.00;;;;;21.55;54.46;101851.25;5058432;28;45285;-61
2021/08/14 07:19:02;;;;;;;;;12.50;7.75;;;;;21.64;53.62;101854.34;5058244;28;45436;-60
2021/08/14 07:21:28;;;;;;;;;10.75;8.00;;;;;21.63;53.70;101850.84;5059172;28;45291;-59
2021/08/14 07:23:54;;;;;;;;;10.00;8.00;;;;;21.71;52.54;101861.00;5058110;28;46323;-59
2021/08/14 07:26:19;;;;;;;;;12.00;7.00;;;;;21.72;53.00;101857.41;5059109;28;45287;-59
2021/08/14 07:28:45;;;;;;;;;9.25;6.25;;;;;21.77;52.63;101850.06;5056817;28;45249;-59
2021/08/14 07:31:10;;;;;;;;;9.75;5.25;;;;;21.87;52.42;101851.25;5058667;28;45244;-60
2021/08/14 07:33:35;;;;;;;;;7.75;6.00;;;;;21.95;52.23;101842.84;5057556;28;46968;-63
2021/08/14 07:36:01;;;;;;;;;8.50;5.50;;;;;22.02;51.70;101853.00;5055823;28;45494;-63
2021/08/14 07:38:26;;;;;;;;;6.25;6.25;;;;;22.07;51.23;101853.63;5053684;28;45335;-63
2021/08/14 07:40:52;;;;;;;;;8.75;4.50;;;;;22.12;50.92;101845.41;5058949;28;45419;-63
2021/08/14 07:43:17;;;;;;;;;3.25;2.00;;;;;22.19;50.29;101843.25;5057290;28;46139;-61
2021/08/14 07:45:42;;;;;;;;;6.75;6.50;;;;;22.24;49.71;101843.84;5058937;28;45247;-61
2021/08/14 07:48:08;;;;;;;;;6.75;3.50;;;;;22.29;50.33;101841.78;5059413;28;45278;-60
2021/08/14 07:50:35;;;;;;;;;7.00;7.00;;;;;22.31;49.99;101838.09;5058196;28;45322;-61
2021/08/14 07:53:02;;;;;;;;;6.75;5.00;;;;;22.39;49.97;101842.94;5050338;28;46367;-63
2021/08/14 07:55:29;;;;;;;;;5.50;4.25;;;;;22.45;49.73;101838.13;5051139;28;45755;-62
2021/08/14 07:57:55;;;;;;;;;8.50;4.75;;;;;22.52;49.62;101827.16;5046823;28;45488;-63
2021/08/14 08:00:23;;;;;;;;;4.00;4.00;;;;;22.66;48.66;101835.13;5054929;28;45392;-72
2021/08/14 08:02:48;;;;;;;;;6.75;5.75;;;;;22.76;49.30;101833.63;5052044;28;45689;-59
2021/08/14 08:05:13;;;;;;;;;6.75;5.00;;;;;;;;5053877;28;45314;-60
2021/08/14 08:07:40;;;;;;;;;4.00;4.00;;;;;22.91;48.39;101827.41;5052878;28;45311;-61
2021/08/14 08:10:14;;;;;;;;;3.00;3.00;;;;;22.98;47.99;101827.88;5069577;28;45508;-77
2021/08/14 08:12:40;;;;;;;;;5.00;5.00;;;;;23.06;46.80;101820.31;5053747;28;45498;-75
2021/08/14 08:15:10;;;;;;;;;6.75;5.00;;;;;23.13;47.38;101818.13;5053175;28;45467;-62
2021/08/14 08:17:36;;;;;;;;;5.75;5.50;;;;;23.10;46.99;101815.66;5046291;28;45537;-68
2021/08/14 08:20:06;;;;;;;;;1.00;0.00;;;;;23.12;46.75;101819.91;5055672;28;45458;-64
2021/08/14 08:22:32;;;;;;;;;5.75;4.00;;;;;23.18;46.22;101827.47;5061760;28;45260;-64
2021/08/14 08:24:57;;;;;;;;;5.00;4.00;;;;;23.18;45.92;101819.53;5062320;28;45293;-64
2021/08/14 08:27:26;;;;;;;;;6.75;5.00;;;;;23.20;45.66;101817.63;5061779;28;45324;-64
2021/08/14 08:29:51;;;;;;;;;5.50;3.00;;;;;23.24;45.77;101821.81;5062040;28;45179;-64
2021/08/14 08:32:17;;;;;;;;;6.00;4.00;;;;;23.29;45.12;101827.66;5060726;28;45254;-63
2021/08/14 08:34:42;;;;;;;;;0.00;0.00;;;;;23.30;45.13;101810.81;5052707;28;45500;-63
2021/08/14 08:37:07;;;;;;;;;4.00;1.50;;;;;23.38;45.10;101823.56;5054726;28;45279;-63
2021/08/14 08:39:34;;;;;;;;;6.00;4.50;;;;;23.45;43.80;101819.59;5052237;28;45335;-63
2021/08/14 08:42:00;;;;;;;;;12.50;6.75;;;;;23.49;44.70;101809.63;5055102;28;46326;-61
2021/08/14 08:44:26;;;;;;;;;6.50;5.50;;;;;23.63;45.31;101812.28;5054788;28;45378;-62
2021/08/14 08:46:52;;;;;;;;;8.00;4.75;;;;;23.75;45.10;101802.63;5055217;28;45288;-61
2021/08/14 08:49:23;;;;;;;;;4.00;4.00;;;;;23.88;45.03;101806.19;5051821;28;45493;-63
2021/08/14 08:51:49;;;;;;;;;5.75;5.75;;;;;23.87;44.60;101800.03;5055565;28;45540;-63
2021/08/14 08:54:16;;;;;;;;;6.50;6.00;;;;;24.00;44.37;101799.19;5061315;28;45385;-62
2021/08/14 08:56:41;;;;;;;;;8.25;5.00;;;;;24.12;44.27;101793.91;5057785;28;45402;-62
2021/08/14 08:59:11;;;;;;;;;5.75;5.75;;;;;24.22;43.50;101802.09;5061523;28;45239;-62
2021/08/14 09:01:37;;;;;;;;;6.50;5.00;;;;;24.37;43.06;101802.91;5059573;28;46290;-62
2021/08/14 09:04:25;;;;;;;;;7.50;7.00;;;;;24.58;43.16;101798.75;5053358;28;46482;-63
2021/08/14 09:06:52;;;;;;;;;19.25;15.75;;;;;24.66;42.10;101792.94;5054266;28;45430;-62
2021/08/14 09:09:24;;;;;;;;;9.50;8.00;;;;;24.76;41.48;101789.50;5050384;28;45304;-61
2021/08/14 09:11:51;;;;;;;;;6.25;6.00;;;;;24.83;41.73;101790.78;5053888;28;45433;-64
2021/08/14 09:14:17;;;;;;;;;7.50;5.25;;;;;24.78;40.97;101787.56;5052692;28;45557;-61
2021/08/14 09:16:43;;;;;;;;;5.75;4.75;;;;;24.70;41.42;101792.59;5051104;28;45474;-65
2021/08/14 09:19:20;;;;;;;;;5.25;5.25;;;;;24.68;40.76;101788.34;5050399;28;45189;-62
2021/08/14 09:21:46;;;;;;;;;5.00;5.00;;;;;24.71;40.80;101786.31;5047736;28;45427;-59
2021/08/14 09:24:38;;;;;;;;;7.00;5.75;;;;;24.87;41.17;101786.94;5049076;28;45213;-62
2021/08/14 09:27:04;;;;;;;;;8.50;5.00;;;;;25.03;41.21;101780.53;5053273;28;45847;-61
2021/08/14 09:29:35;;;;;;;;;4.00;4.00;;;;;25.15;40.78;101783.19;5051637;28;45459;-62
2021/08/14 09:32:06;;;;;;;;;5.00;4.00;;;;;25.21;40.05;101789.84;5050730;28;46114;-63
2021/08/14 09:34:31;;;;;;;;;6.50;6.00;;;;;25.27;38.81;101789.44;5049936;28;45467;-62
2021/08/14 09:37:11;;;;;;;;;9.50;8.75;;;;;25.34;39.65;101784.50;5057122;28;45279;-60
2021/08/14 09:39:56;;;;;;;;;8.25;7.00;;;;;25.45;40.42;101789.91;5060240;28;45485;-62
2021/08/14 09:42:23;;;;;;;;;5.25;4.75;;;;;25.48;39.74;101792.34;5053626;28;45311;-62
2021/08/14 09:45:11;;;;;;;;;6.75;6.00;;;;;25.57;40.10;101785.47;5051407;28;45360;-62
2021/08/14 09:47:36;;;;;;;;;10.00;8.00;;;;;25.63;39.60;101785.00;5051972;28;45407;-61
2021/08/14 09:50:02;;;;;;;;;10.00;6.50;;;;;25.70;39.56;101786.31;5060037;28;45277;-63
2021/08/14 09:52:27;;;;;;;;;6.50;6.00;;;;;25.74;39.09;101783.28;5059176;28;47981;-58
2021/08/14 09:54:54;;;;;;;;;8.25;6.50;;;;;25.78;40.31;101779.44;5060283;28;45417;-57
2021/08/14 09:57:21;;;;;;;;;9.75;7.00;;;;;25.92;40.34;101781.06;5060829;28;45450;-58
2021/08/14 09:59:48;;;;;;;;;5.25;4.50;;;;;25.92;40.38;101782.88;5060433;28;45504;-58
2021/08/14 10:02:25;;;;;;;;;6.00;5.00;;;;;25.99;39.08;101781.44;5060336;28;46491;-58
2021/08/14 10:04:52;;;;;;;;;5.00;4.50;;;;;25.94;39.57;101778.28;5060196;28;45263;-58
2021/08/14 10:07:18;;;;;;;;;7.50;6.00;;;;;26.02;39.70;101778.53;5060713;28;45282;-58
2021/08/14 10:09:45;;;;;;;;;8.75;7.50;;;;;26.08;39.80;101770.09;5059415;28;45293;-57
2021/08/14 10:12:12;;;;;;;;;6.50;6.50;;;;;26.17;40.23;101765.84;5053501;28;46161;-58
2021/08/14 10:14:38;;;;;;;;;6.50;5.25;;;;;26.21;39.63;101765.50;5052052;28;45292;-56
2021/08/14 10:17:06;;;;;;;;;13.75;8.00;;;;;26.22;39.19;101766.34;5050616;28;45458;-56
2021/08/14 10:19:32;;;;;;;;;9.50;8.00;;;;;26.25;39.68;101761.66;5050740;28;45597;-57
2021/08/14 10:21:58;;;;;;;;;7.75;6.50;;;;;26.28;39.39;101755.25;5057876;28;47874;-56
2021/08/14 10:24:23;;;;;;;;;9.75;7.00;;;;;26.30;39.18;101751.47;5058966;28;45391;-56
2021/08/14 10:27:02;;;;;;;;;5.75;3.00;;;;;26.38;39.79;101757.09;5059811;28;45484;-56
2021/08/14 10:29:50;;;;;;;;;10.75;8.00;;;;;26.45;38.03;101751.28;5058922;28;45470;-55
2021/08/14 10:32:39;;;;;;;;;6.25;5.00;;;;;26.49;36.92;101747.41;5058400;28;46948;-55
2021/08/14 10:35:20;;;;;;;;;8.00;5.00;;;;;26.44;37.59;101741.59;5053491;28;45706;-55
2021/08/14 10:37:47;;;;;;;;;5.00;5.00;;;;;26.50;38.02;101741.09;5060258;28;45249;-55
2021/08/14 10:40:15;;;;;;;;;8.25;7.25;;;;;26.56;36.06;101738.78;5058797;28;45447;-55
2021/08/14 10:42:49;;;;;;;;;9.00;9.00;;;;;26.67;37.68;101741.47;5059830;28;45499;-58
2021/08/14 10:45:19;;;;;;;;;8.00;7.00;;;;;26.79;37.73;101736.97;5058869;28;45638;-55
2021/08/14 10:47:45;;;;;;;;;8.50;7.00;;;;;26.82;35.73;101725.19;5060007;28;45236;-56
2021/08/14 10:50:32;;;;;;;;;7.75;4.75;;;;;26.80;35.91;101729.81;5056294;28;45227;-61
2021/08/14 10:53:10;;;;;;;;;5.25;3.00;;;;;26.72;35.46;101722.44;5053663;28;45385;-55
2021/08/14 10:55:36;;;;;;;;;7.50;6.75;;;;;26.65;35.71;101726.56;5051919;28;45388;-56
2021/08/14 10:58:27;;;;;;;;;6.25;5.00;;;;;26.66;35.65;101717.59;5050678;28;45359;-56
2021/08/14 11:01:13;;;;;;;;;7.50;6.00;;;;;26.71;35.90;101714.56;5054532;28;45505;-56
2021/08/14 11:03:39;;;;;;;;;8.25;6.00;;;;;26.73;36.12;101717.94;5049739;28;45457;-57
2021/08/14 11:06:25;;;;;;;;;9.00;6.00;;;;;26.90;36.11;101714.78;5050470;28;45530;-56
2021/08/14 11:09:16;;;;;;;;;17.00;14.00;;;;;27.10;36.78;101711.38;5052352;28;45454;-57
2021/08/14 11:11:44;;;;;;;;;179.50;165.25;;;;;27.24;36.30;101700.41;5055719;28;45456;-56
2021/08/14 11:14:11;;;;;;;;;83.00;77.00;;;;;27.47;36.58;101713.66;5049961;28;46500;-57
2021/08/14 11:16:57;;;;;;;;;205.25;189.25;;;;;27.62;37.06;101709.69;5049751;28;45376;-57
2021/08/14 11:19:49;;;;;;;;;12.50;11.00;;;;;27.66;36.25;101708.50;5050860;28;45403;-57
2021/08/14 11:22:24;;;;;;;;;24.50;21.50;;;;;27.69;35.57;101700.25;5048705;28;45438;-61